Latest Weather Observations for Tewantin

IDQ60801

Issued at 3:02 pm EST Tuesday 7 July 2015 (issued every 30 minutes, with the page automatically refreshed every 10 minutes)

About weather observations | Map of weather stations | Latest weather observations for QLD | Other Formats
Station Details ID: 040908 Name: TEWANTIN RSL PARK Lat: -26.39 Lon: 153.04 Height: 6.4 m
Data from the previous 72 hours. | See also: Recent months at Tewantin
Date/Time
EST
Temp
°C
App
Temp
°C
Dew
Point
Rel
Hum
%
Delta-T
°C
Wind Press
QNH
hPa
Press
MSL
hPa
Rain
since 9 am
mm
Dir
 
Spd
km/h
Gust
km/h
Spd
kts
Gust
kts
07/03:00pm 20.7 17.8 8.0 44 6.6 SE 13 24 7 13 1016.6 1016.6 0.0
07/02:30pm 22.6 19.0 0.4 23 10.1 SW 9 15 5 8 1016.2 1016.2 0.0
07/02:00pm 23.2 19.3 0.9 23 10.3 SW 11 17 6 9 1016.2 1016.2 0.0
07/01:30pm 23.3 19.9 1.6 24 10.2 SW 9 20 5 11 1016.2 1016.2 0.0
07/01:00pm 22.9 19.1 1.8 25 9.9 SW 11 19 6 10 1016.4 1016.4 0.0
07/12:30pm 22.7 18.8 3.3 28 9.3 SSW 13 19 7 10 1016.5 1016.5 0.0
07/12:00pm 22.5 19.1 4.1 30 9.0 SSW 11 20 6 11 1016.8 1016.8 0.0
07/11:30am 22.3 19.5 5.3 33 8.5 W 9 15 5 8 1017.4 1017.4 0.0
07/11:00am 22.1 19.6 6.7 37 7.9 WSW 9 15 5 8 1017.7 1017.7 0.0
07/10:30am 21.0 18.3 5.8 37 7.6 WSW 9 15 5 8 1018.0 1018.0 0.0
07/10:00am 20.1 17.0 5.4 38 7.2 SW 11 19 6 10 1018.2 1018.2 0.0
07/09:30am 19.9 17.5 7.0 43 6.5 SW 9 19 5 10 1018.5 1018.5 0.0
07/09:00am 19.0 17.8 9.5 54 5.0 SW 6 13 3 7 1018.4 1018.4 0.0
07/08:30am 17.2 16.5 10.1 63 3.8 SSW 4 7 2 4 1018.2 1018.2 0.0
07/08:00am 15.0 15.2 10.6 75 2.3 CALM 0 0 0 0 1018.1 1018.1 0.0
07/07:00am 11.3 11.5 10.4 94 0.5 CALM 0 0 0 0 1017.7 1017.7 0.0
07/06:30am 11.0 11.1 10.1 94 0.5 CALM 0 0 0 0 1017.4 1017.4 0.0
07/06:00am 11.1 10.4 10.2 94 0.5 NW 4 7 2 4 1017.2 1017.2 0.0
07/05:30am 11.3 10.3 10.2 93 0.6 N 6 9 3 5 1016.9 1016.9 0.0
07/05:00am 11.0 10.9 9.4 90 0.8 CALM 0 0 0 0 1016.7 1016.7 0.0
07/04:30am 11.6 10.4 10.2 91 0.7 NW 7 9 4 5 1016.6 1016.6 0.0
07/04:00am 11.8 12.3 11.5 98 0.2 CALM 0 0 0 0 1016.8 1016.8 0.0
07/03:30am 11.7 12.0 10.9 95 0.4 CALM 0 0 0 0 1016.9 1016.9 0.0
07/03:00am 11.8 12.0 10.5 92 0.7 CALM 0 0 0 0 1016.9 1016.9 0.0
07/02:00am 11.9 11.3 9.1 83 1.4 WNW 2 6 1 3 1016.9 1016.9 0.0
07/01:30am 12.5 11.6 9.1 80 1.7 WNW 4 7 2 4 1017.0 1017.0 0.0
07/01:00am 12.8 11.3 9.3 79 1.8 WNW 7 9 4 5 1017.1 1017.1 0.0
07/12:30am 13.0 11.5 9.1 77 2.0 NW 7 11 4 6 1017.3 1017.3 0.0
07/12:00am 13.7 12.3 9.4 75 2.2 NW 7 13 4 7 1017.3 1017.3 0.0
 
Date/Time
EST
Temp
°C
App
Temp
°C
Dew
Point
Rel
Hum
%
Delta-T
°C
Wind Press
QNH
hPa
Press
MSL
hPa
Rain
since 9 am
mm
Dir
 
Spd
km/h
Gust
km/h
Spd
kts
Gust
kts
06/11:30pm 13.9 12.7 10.3 79 1.9 NNW 7 11 4 6 1017.4 1017.4 0.0
06/11:00pm 13.7 12.0 9.9 78 2.0 NW 9 11 5 6 1017.5 1017.5 0.0
06/10:30pm 13.9 12.3 10.3 79 1.9 NW 9 11 5 6 1017.6 1017.6 0.0
06/10:00pm 14.1 12.6 10.5 79 1.9 NW 9 11 5 6 1017.7 1017.7 0.0
06/09:30pm 14.6 13.2 10.8 78 2.0 NW 9 11 5 6 1017.7 1017.7 0.0
06/09:00pm 15.0 13.6 10.8 76 2.2 NW 9 13 5 7 1017.7 1017.7 0.0
06/08:30pm 15.2 13.8 11.0 76 2.2 NW 9 13 5 7 1017.5 1017.5 0.0
06/08:00pm 15.7 14.4 11.3 75 2.4 NW 9 11 5 6 1017.4 1017.4 0.0
06/07:30pm 15.8 14.5 11.4 75 2.4 NW 9 11 5 6 1017.3 1017.3 0.0
06/07:00pm 16.2 15.4 11.8 75 2.4 NW 7 9 4 5 1017.2 1017.2 0.0
06/06:30pm 16.9 16.1 11.6 71 2.9 N 7 9 4 5 1016.9 1016.9 0.0
06/06:00pm 18.0 16.7 11.3 65 3.6 NNW 9 13 5 7 1016.5 1016.5 0.0
06/05:30pm 18.7 17.5 10.3 58 4.5 N 7 9 4 5 1016.3 1016.3 0.0
06/05:00pm 19.8 18.4 9.4 51 5.5 N 7 11 4 6 1016.2 1016.2 0.0
06/04:30pm 20.9 19.4 9.2 47 6.2 N 7 11 4 6 1016.0 1016.0 0.0
06/04:00pm 21.4 19.7 8.3 43 6.9 N 7 11 4 6 1015.9 1015.9 0.0
06/03:30pm 21.8 20.3 9.0 44 6.8 NNW 7 11 4 6 1016.0 1016.0 0.0
06/03:00pm 22.0 20.3 8.5 42 7.1 NW 7 11 4 6 1016.3 1016.3 0.0
06/02:30pm 22.1 20.0 6.7 37 7.9 WNW 7 15 4 8 1016.4 1016.4 0.0
06/02:00pm 23.2 21.4 8.1 38 8.0 WNW 7 13 4 7 1016.6 1016.6 0.0
06/01:30pm 22.6 20.8 8.0 39 7.7 NW 7 17 4 9 1016.8 1016.8 0.0
06/01:00pm 23.2 21.3 9.2 41 7.5 NW 9 15 5 8 1017.1 1017.1 0.0
06/12:30pm 22.3 19.6 9.1 43 7.1 NNW 13 20 7 11 1017.5 1017.5 0.0
06/12:00pm 22.5 20.9 10.3 46 6.7 WNW 9 19 5 10 1018.1 1018.1 0.0
06/11:30am 22.1 20.2 8.9 43 7.0 NW 9 15 5 8 1018.7 1018.7 0.0
06/11:00am 22.0 21.1 12.5 54 5.4 NW 9 17 5 9 1019.3 1019.3 0.0
06/10:30am 20.9 20.1 12.8 60 4.6 NW 9 15 5 8 1019.6 1019.6 0.0
06/10:00am 20.2 19.3 12.7 62 4.2 NW 9 13 5 7 1019.9 1019.9 0.0
06/09:30am 19.2 18.9 12.7 66 3.6 WNW 6 11 3 6 1020.1 1020.1 0.0
06/09:00am 17.6 17.3 12.7 73 2.7 WNW 6 9 3 5 1020.2 1020.2 0.0
06/08:30am 16.6 16.3 12.6 77 2.2 NW 6 9 3 5 1020.3 1020.3 0.0
06/08:00am 15.4 15.6 12.9 85 1.4 W 4 9 2 5 1020.1 1020.1 0.0
06/07:30am 13.0 13.1 12.8 99 0.1 WNW 4 9 2 5 1020.0 1020.0 0.0
06/07:00am 11.5 11.9 11.3 99 0.1 CALM 0 7 0 4 1019.9 1019.9 0.0
06/06:30am 11.6 10.9 11.3 98 0.2 NW 6 7 3 4 1019.7 1019.7 0.0
06/06:00am 12.0 11.2 11.7 98 0.2 NW 7 11 4 6 1019.6 1019.6 0.0
06/05:30am 12.2 11.7 11.9 98 0.2 NW 6 7 3 4 1019.6 1019.6 0.0
06/05:00am 12.7 12.1 12.4 98 0.2 NW 7 11 4 6 1019.5 1019.5 0.0
06/04:30am 12.9 12.4 12.6 98 0.2 NNW 7 11 4 6 1019.5 1019.5 0.0
06/04:00am 13.4 13.0 13.1 98 0.2 NNW 7 9 4 5 1019.5 1019.5 0.0
06/03:30am 14.0 14.5 12.9 93 0.6 WSW 2 7 1 4 1019.5 1019.5 0.0
06/03:00am 14.2 15.3 13.4 95 0.4 CALM 0 4 0 2 1019.7 1019.7 0.0
06/02:30am 14.0 14.8 13.8 99 0.1 SW 2 6 1 3 1019.9 1019.9 0.0
06/02:00am 13.8 14.9 13.6 99 0.1 CALM 0 0 0 0 1020.1 1020.1 0.0
06/01:30am 13.7 14.8 13.5 99 0.1 CALM 0 0 0 0 1020.5 1020.5 0.0
06/01:00am 13.6 14.7 13.4 99 0.1 CALM 0 0 0 0 1020.8 1020.8 0.0
06/12:30am 13.6 14.7 13.4 99 0.1 CALM 0 0 0 0 1021.0 1021.0 0.0
06/12:00am 13.7 14.8 13.4 98 0.2 CALM 0 0 0 0 1021.1 1021.1 0.0
 
Date/Time
EST
Temp
°C
App
Temp
°C
Dew
Point
Rel
Hum
%
Delta-T
°C
Wind Press
QNH
hPa
Press
MSL
hPa
Rain
since 9 am
mm
Dir
 
Spd
km/h
Gust
km/h
Spd
kts
Gust
kts
05/11:30pm 13.8 14.9 13.5 98 0.2 CALM 0 0 0 0 1021.1 1021.1 0.0
05/11:00pm 14.0 15.1 13.4 96 0.3 CALM 0 0 0 0 1021.1 1021.1 0.0
05/10:30pm 14.8 16.2 14.3 97 0.3 CALM 0 0 0 0 1021.2 1021.2 0.0
05/10:00pm 14.9 16.2 14.1 95 0.4 CALM 0 0 0 0 1021.4 1021.4 0.0
05/09:30pm 15.1 16.4 14.1 94 0.6 CALM 0 0 0 0 1021.4 1021.4 0.0
05/09:00pm 15.2 16.5 14.1 93 0.6 CALM 0 0 0 0 1021.4 1021.4 0.0
05/08:30pm 15.5 16.8 14.2 92 0.7 CALM 0 6 0 3 1021.4 1021.4 0.0
05/08:00pm 15.3 16.6 14.0 92 0.7 CALM 0 0 0 0 1021.1 1021.1 0.0
05/07:30pm 15.8 16.8 14.3 91 0.9 SW 2 6 1 3 1021.1 1021.1 0.0
05/07:00pm 16.2 16.5 14.6 90 0.9 SW 6 7 3 4 1020.9 1020.9 0.0
05/06:30pm 16.8 18.1 14.1 84 1.5 CALM 0 4 0 2 1020.8 1020.8 0.0
05/06:00pm 17.5 18.5 14.2 81 1.9 ESE 2 6 1 3 1020.6 1020.6 0.0
05/05:30pm 18.0 18.8 13.7 76 2.4 NNE 2 6 1 3 1020.4 1020.4 0.0
05/05:00pm 18.6 18.6 14.1 75 2.6 NNE 7 11 4 6 1020.2 1020.2 0.0
05/04:30pm 19.1 18.4 14.4 74 2.7 NNE 11 15 6 8 1020.1 1020.1 0.0
05/04:00pm 19.4 18.8 13.6 69 3.3 NNE 9 13 5 7 1020.1 1020.1 0.0
05/03:30pm 19.7 18.7 13.4 67 3.6 NNE 11 17 6 9 1019.9 1019.9 0.0
05/03:00pm 20.5 20.3 13.7 65 3.9 NE 7 13 4 7 1019.9 1019.9 0.0
05/02:30pm 20.0 18.8 13.9 68 3.5 NE 13 19 7 10 1020.0 1020.0 0.0
05/02:00pm 20.5 18.9 12.7 61 4.4 NE 13 20 7 11 1020.2 1020.2 0.0
05/01:30pm 22.3 21.6 10.1 46 6.6 NW 4 9 2 5 1020.4 1020.4 0.0
05/01:00pm 22.3 20.8 9.1 43 7.0 W 7 13 4 7 1020.6 1020.6 0.0
05/12:30pm 21.7 21.3 11.1 51 5.9 SE 4 9 2 5 1021.0 1021.0 0.0
05/12:00pm 22.6 22.2 12.3 52 5.8 NE 6 9 3 5 1021.4 1021.4 0.0
05/11:30am 20.9 20.4 12.1 57 4.9 NNE 6 9 3 5 1022.1 1022.1 0.0
05/11:00am 20.4 20.2 13.1 63 4.1 S 6 9 3 5 1022.6 1022.6 0.0
05/10:30am 19.8 20.7 16.1 79 2.2 S 6 9 3 5 1023.0 1023.0 0.0
05/10:00am 18.1 19.1 14.2 78 2.2 SSE 2 7 1 4 1023.1 1023.1 0.0
05/09:30am 17.3 18.4 13.6 79 2.1 CALM 0 0 0 0 1023.2 1023.2 0.0
05/09:00am 16.2 16.7 13.9 86 1.3 S 4 6 2 3 1023.0 1023.0 0.0
05/08:30am 14.7 15.0 13.4 92 0.7 SSW 4 6 2 3 1022.6 1022.6 0.0
05/08:00am 13.6 14.6 13.3 98 0.2 CALM 0 0 0 0 1022.4 1022.4 0.0
05/07:30am 12.7 13.5 12.5 99 0.1 CALM 0 0 0 0 1022.0 1022.0 0.0
05/07:00am 12.0 12.6 11.8 99 0.1 CALM 0 6 0 3 1021.8 1021.8 0.0
05/06:30am 12.0 12.2 11.7 98 0.2 W 2 9 1 5 1021.7 1021.7 0.0
05/06:00am 12.0 12.5 11.7 98 0.2 CALM 0 4 0 2 1021.4 1021.4 0.0
05/05:30am 12.2 12.8 11.9 98 0.2 CALM 0 0 0 0 1021.2 1021.2 0.0
05/05:00am 12.4 12.7 12.2 99 0.1 SSE 2 6 1 3 1021.0 1021.0 0.0
05/04:30am 12.5 13.2 12.3 99 0.1 CALM 0 0 0 0 1020.8 1020.8 0.0
05/04:00am 12.3 13.0 12.1 99 0.1 CALM 0 0 0 0 1020.8 1020.8 0.0
05/03:30am 12.5 13.2 12.2 98 0.2 CALM 0 0 0 0 1020.9 1020.9 0.0
05/03:00am 12.4 13.1 12.1 98 0.2 CALM 0 0 0 0 1020.9 1020.9 0.0
05/02:30am 12.4 13.0 11.8 96 0.3 CALM 0 0 0 0 1021.1 1021.1 0.0
05/02:00am 12.8 13.5 12.2 96 0.3 CALM 0 0 0 0 1021.4 1021.4 0.0
05/01:30am 12.9 13.7 12.4 97 0.3 CALM 0 0 0 0 1021.7 1021.7 0.0
05/01:00am 12.8 13.6 12.5 98 0.2 CALM 0 0 0 0 1022.0 1022.0 0.0
05/12:30am 12.4 13.0 11.8 96 0.3 CALM 0 6 0 3 1022.3 1022.3 0.0
05/12:00am 12.6 12.8 11.8 95 0.4 WNW 2 7 1 4 1022.3 1022.3 0.0
 
Date/Time
EST
Temp
°C
App
Temp
°C
Dew
Point
Rel
Hum
%
Delta-T
°C
Wind Press
QNH
hPa
Press
MSL
hPa
Rain
since 9 am
mm
Dir
 
Spd
km/h
Gust
km/h
Spd
kts
Gust
kts
04/11:30pm 13.4 13.6 12.9 97 0.3 N 4 9 2 5 1022.4 1022.4 0.0
04/11:00pm 14.0 13.6 12.4 90 0.9 NNW 6 7 3 4 1022.4 1022.4 0.0
04/10:30pm 14.3 14.9 11.8 85 1.3 CALM 0 0 0 0 1022.5 1022.5 0.0
04/10:00pm 15.3 15.0 12.6 84 1.5 SW 6 9 3 5 1022.4 1022.4 0.0
04/09:30pm 15.6 15.5 13.3 86 1.3 SSW 6 7 3 4 1022.3 1022.3 0.0
04/09:00pm 16.0 15.8 13.1 83 1.6 SW 6 7 3 4 1022.5 1022.5 0.0
04/08:30pm 16.2 17.2 13.3 83 1.6 CALM 0 0 0 0 1022.5 1022.5 0.0
04/08:00pm 16.7 16.7 13.6 82 1.7 SSW 6 7 3 4 1022.4 1022.4 0.0
04/07:30pm 16.9 16.8 13.4 80 2.0 SW 6 7 3 4 1022.2 1022.2 0.0
04/07:00pm 16.9 16.8 13.4 80 2.0 SSW 6 9 3 5 1021.8 1021.8 0.0
04/06:30pm 17.1 16.8 13.4 79 2.1 SSW 7 9 4 5 1021.3 1021.3 0.0
04/06:00pm 17.2 17.0 13.7 80 2.0 S 7 9 4 5 1021.0 1021.0 0.0
04/05:30pm 17.1 16.8 13.2 78 2.2 SSE 7 11 4 6 1020.6 1020.6 0.0
04/05:00pm 17.6 16.9 13.1 75 2.5 SSE 9 15 5 8 1020.3 1020.3 0.0
04/04:30pm 18.1 17.4 13.2 73 2.8 SE 9 15 5 8 1020.2 1020.2 0.0
04/04:00pm 18.6 17.8 12.8 69 3.2 SE 9 17 5 9 1020.1 1020.1 0.0
04/03:30pm 18.7 17.2 13.1 70 3.2 SE 13 19 7 10 1020.1 1020.1 0.0

Other Formats:

Comma delimited format used in spreadsheet applications
http://www.bom.gov.au/fwo/IDQ60801/IDQ60801.94570.axf

JavaScript Object Notation format (JSON) in row-major order
http://www.bom.gov.au/fwo/IDQ60801/IDQ60801.94570.json